Time;durP1;ratioP1;P1;durP2;ratioP2;P2;SDS_P1;SDS_P2;PMS_P1;PMS_P2;Temp;Humidity;BMP_temperature;BMP_pressure;BME280_temperature;BME280_humidity;BME280_pressure;Samples;Min_cycle;Max_cycle;Signal;HPM_P1;HPM_P2
2024/01/04 00:00:02;;;;;;;;;;;;;;;11.75;61.20;98959.28;5417165;32;33910;-75
2024/01/04 00:03:04;;;;;;;;;;;;;;;12.09;60.62;98957.87;5418273;32;33806;-67
2024/01/04 00:06:07;;;;;;;;;;;;;;;11.86;61.44;98965.56;5413330;32;34169;-74
2024/01/04 00:09:09;;;;;;;;;;;;;;;12.04;60.77;98978.41;5416046;32;34828;-76
2024/01/04 00:12:12;;;;;;;;;;;;;;;11.93;61.08;98982.63;5421029;32;34058;-75
2024/01/04 00:15:14;;;;;;;;;;;;;;;11.78;61.82;98983.59;5412085;32;33344;-75
2024/01/04 00:18:17;;;;;;;;;;;;;;;12.19;60.54;98980.03;5423733;32;34398;-66
2024/01/04 00:21:20;;;;;;;;;;;;;;;12.06;60.62;98976.56;5405637;32;34203;-68
2024/01/04 00:24:22;;;;;;;;;;;;;;;12.07;60.77;98972.97;5420071;32;34312;-75
2024/01/04 00:27:24;;;;;;;;;;;;;;;12.08;61.07;98967.59;5419551;32;33859;-76
2024/01/04 00:30:26;;;;;;;;;;;;;;;11.63;62.19;98958.31;5413048;32;33694;-68
2024/01/04 00:33:28;;;;;;;;;;;;;;;11.21;63.06;98975.94;5416110;32;33667;-76
2024/01/04 00:36:31;;;;;;;;;;;;;;;11.44;63.24;98979.72;5413619;32;33554;-75
2024/01/04 00:39:33;;;;;;;;;;;;;;;11.37;63.29;98974.00;5417615;32;33353;-67
2024/01/04 00:42:35;;;;;;;;;;;;;;;10.51;66.87;98962.81;5408897;32;33814;-67
2024/01/04 00:45:37;;;;;;;;;;;;;;;11.66;62.23;98963.38;5417112;32;33913;-67
2024/01/04 00:48:39;;;;;;;;;;;;;;;11.71;61.81;98970.94;5419448;32;33876;-75
2024/01/04 00:51:42;;;;;;;;;;;;;;;11.72;61.40;98956.84;5415984;32;33898;-74
2024/01/04 00:54:44;;;;;;;;;;;;;;;12.00;60.31;98963.78;5409261;32;33831;-66
2024/01/04 00:57:46;;;;;;;;;;;;;;;11.47;62.25;98957.66;5410428;32;33669;-67
2024/01/04 01:00:48;;;;;;;;;;;;;;;11.83;60.99;98957.84;5419001;32;34910;-70
2024/01/04 01:03:51;;;;;;;;;;;;;;;11.02;62.84;98959.66;5421632;32;33832;-66
2024/01/04 01:06:53;;;;;;;;;;;;;;;11.15;63.41;98949.22;5421955;32;33871;-66
2024/01/04 01:09:55;;;;;;;;;;;;;;;11.33;62.35;98943.59;5419031;32;34039;-74
2024/01/04 01:12:57;;;;;;;;;;;;;;;10.93;64.39;98953.19;5393888;32;33228;-67
2024/01/04 01:15:59;;;;;;;;;;;;;;;10.79;64.61;98940.91;5407767;32;33961;-66
2024/01/04 01:19:02;;;;;;;;;;;;;;;10.94;64.54;98943.50;5418162;32;34429;-74
2024/01/04 01:22:05;;;;;;;;;;;;;;;11.32;63.33;98920.84;5413236;32;33437;-68
2024/01/04 01:25:07;;;;;;;;;;;;;;;11.25;62.80;98922.19;5420967;32;33237;-67
2024/01/04 01:28:10;;;;;;;;;;;;;;;11.53;61.63;98916.00;5401770;32;33894;-67
2024/01/04 01:31:13;;;;;;;;;;;;;;;11.54;61.72;98911.56;5420082;32;33949;-72
2024/01/04 01:34:16;;;;;;;;;;;;;;;11.12;62.81;98910.78;5411415;32;34833;-67
2024/01/04 01:37:18;;;;;;;;;;;;;;;11.50;62.08;98912.69;5417247;32;34121;-75
2024/01/04 01:40:21;;;;;;;;;;;;;;;11.77;60.37;98913.47;5416192;32;34273;-74
2024/01/04 01:43:23;;;;;;;;;;;;;;;11.70;60.40;98914.00;5424822;32;34345;-74
2024/01/04 01:46:25;;;;;;;;;;;;;;;11.42;61.80;98921.09;5422111;32;33251;-75
2024/01/04 01:49:27;;;;;;;;;;;;;;;11.83;60.65;98926.25;5416161;32;34492;-67
2024/01/04 01:52:30;;;;;;;;;;;;;;;11.71;60.25;98939.38;5412151;32;33569;-74
2024/01/04 01:55:32;;;;;;;;;;;;;;;11.58;60.87;98934.06;5420131;32;34135;-67
2024/01/04 01:58:35;;;;;;;;;;;;;;;11.96;59.92;98946.50;5417093;32;34108;-74
2024/01/04 02:01:37;;;;;;;;;;;;;;;11.53;60.70;98957.25;5404060;32;33989;-73
2024/01/04 02:04:39;;;;;;;;;;;;;;;11.35;62.01;98964.53;5416637;32;34296;-67
2024/01/04 02:07:43;;;;;;;;;;;;;;;11.43;61.68;98953.50;5404150;32;33193;-74
2024/01/04 02:10:46;;;;;;;;;;;;;;;11.87;60.08;98961.97;5405591;32;34501;-74
2024/01/04 02:13:48;;;;;;;;;;;;;;;11.69;60.78;98973.69;5419207;32;34580;-74
2024/01/04 02:16:51;;;;;;;;;;;;;;;11.63;60.67;98960.94;5414523;32;34041;-68
2024/01/04 02:19:55;;;;;;;;;;;;;;;11.95;59.48;98952.72;5417691;32;33831;-66
2024/01/04 02:23:06;;;;;;;;;;;;;;;10.99;62.51;98946.69;5403725;32;33034;-75
2024/01/04 02:26:08;;;;;;;;;;;;;;;10.17;65.55;98942.13;5420169;32;33996;-74
2024/01/04 02:29:10;;;;;;;;;;;;;;;11.21;62.79;98935.66;5412914;32;33799;-74
2024/01/04 02:32:12;;;;;;;;;;;;;;;11.06;63.04;98935.69;5412454;32;33234;-75
2024/01/04 02:35:14;;;;;;;;;;;;;;;10.80;63.82;98941.75;5405472;32;33211;-75
2024/01/04 02:38:17;;;;;;;;;;;;;;;11.02;63.09;98942.09;5392284;32;33921;-75
2024/01/04 02:41:19;;;;;;;;;;;;;;;10.95;62.42;98924.16;5403258;32;34059;-74
2024/01/04 02:44:21;;;;;;;;;;;;;;;10.77;63.71;98926.19;5408148;32;32153;-74
2024/01/04 02:47:23;;;;;;;;;;;;;;;11.22;62.32;98935.56;5422842;32;33971;-66
2024/01/04 02:50:25;;;;;;;;;;;;;;;11.19;61.67;98959.41;5420531;32;33498;-74
2024/01/04 02:53:28;;;;;;;;;;;;;;;11.14;62.67;98974.63;5413339;32;33168;-73
2024/01/04 02:56:30;;;;;;;;;;;;;;;10.49;64.02;98971.72;5420701;32;33903;-74
2024/01/04 02:59:33;;;;;;;;;;;;;;;10.81;64.09;98974.97;5414075;32;33649;-75
2024/01/04 03:02:35;;;;;;;;;;;;;;;11.23;62.32;98974.06;5414515;32;34008;-67
2024/01/04 03:05:37;;;;;;;;;;;;;;;10.77;63.87;98976.97;5411058;32;33801;-67
2024/01/04 03:08:40;;;;;;;;;;;;;;;10.67;63.85;98978.47;5412741;32;33927;-67
2024/01/04 03:11:42;;;;;;;;;;;;;;;10.83;63.43;98976.59;5409642;32;34050;-67
2024/01/04 03:14:44;;;;;;;;;;;;;;;11.00;63.04;98966.78;5417172;32;34504;-67
2024/01/04 03:17:47;;;;;;;;;;;;;;;10.90;63.16;98969.16;5422699;32;34294;-67
2024/01/04 03:20:49;;;;;;;;;;;;;;;11.03;63.17;98964.81;5414001;32;33738;-67
2024/01/04 03:23:52;;;;;;;;;;;;;;;11.03;62.88;98962.19;5423687;32;33985;-68
2024/01/04 03:26:54;;;;;;;;;;;;;;;11.12;62.69;98952.84;5416720;32;33863;-66
2024/01/04 03:29:56;;;;;;;;;;;;;;;11.35;62.19;98938.25;5417572;32;33930;-74
2024/01/04 03:32:58;;;;;;;;;;;;;;;11.46;61.43;98959.41;5409197;32;33735;-66
2024/01/04 03:36:01;;;;;;;;;;;;;;;11.27;61.65;98959.78;5422848;32;34025;-67
2024/01/04 03:39:03;;;;;;;;;;;;;;;11.39;61.76;98963.38;5404079;32;33344;-67
2024/01/04 03:42:05;;;;;;;;;;;;;;;11.28;62.13;98964.09;5416292;32;33920;-66
2024/01/04 03:45:07;;;;;;;;;;;;;;;11.43;61.78;98933.31;5420491;32;34147;-74
2024/01/04 03:48:10;;;;;;;;;;;;;;;11.62;60.75;98951.38;5409336;32;34365;-66
2024/01/04 03:51:13;;;;;;;;;;;;;;;11.68;60.51;98924.63;5412246;32;33755;-67
2024/01/04 03:54:15;;;;;;;;;;;;;;;11.04;62.50;98923.59;5393280;32;34074;-75
2024/01/04 03:57:17;;;;;;;;;;;;;;;11.77;59.87;98921.38;5414654;32;33308;-75
2024/01/04 04:00:20;;;;;;;;;;;;;;;11.55;60.76;98923.78;5418603;32;34012;-68
2024/01/04 04:03:22;;;;;;;;;;;;;;;10.82;63.23;98919.72;5414747;32;33187;-73
2024/01/04 04:06:25;;;;;;;;;;;;;;;10.26;64.35;98923.22;5424678;32;34402;-75
2024/01/04 04:09:27;;;;;;;;;;;;;;;10.84;63.06;98925.69;5407113;32;33438;-74
2024/01/04 04:12:29;;;;;;;;;;;;;;;10.93;62.77;98926.06;5421718;32;34045;-66
2024/01/04 04:15:31;;;;;;;;;;;;;;;10.87;63.52;98922.03;5422597;32;33991;-73
2024/01/04 04:18:33;;;;;;;;;;;;;;;11.07;62.65;98918.13;5411237;32;33169;-74
2024/01/04 04:21:36;;;;;;;;;;;;;;;10.61;63.60;98914.94;5423935;32;34283;-67
2024/01/04 04:24:39;;;;;;;;;;;;;;;11.46;61.33;98917.31;5418178;32;33593;-73
2024/01/04 04:27:41;;;;;;;;;;;;;;;10.97;62.58;98933.66;5418233;32;33160;-67
2024/01/04 04:30:43;;;;;;;;;;;;;;;9.86;66.22;98953.62;5415962;32;34136;-74
2024/01/04 04:33:46;;;;;;;;;;;;;;;9.45;68.17;98956.84;5414861;32;33796;-66
2024/01/04 04:36:49;;;;;;;;;;;;;;;9.35;68.55;98963.56;5420979;32;33328;-67
2024/01/04 04:39:51;;;;;;;;;;;;;;;9.47;68.71;98968.94;5418019;32;33102;-66
2024/01/04 04:42:53;;;;;;;;;;;;;;;9.46;68.73;98963.78;5416262;32;33756;-66
2024/01/04 04:45:56;;;;;;;;;;;;;;;9.00;70.88;98966.34;5417313;32;34444;-66
2024/01/04 04:48:59;;;;;;;;;;;;;;;9.60;69.84;98961.22;5417610;32;33666;-67
2024/01/04 04:52:02;;;;;;;;;;;;;;;9.74;68.54;98960.41;5418757;32;33184;-75
2024/01/04 04:55:04;;;;;;;;;;;;;;;10.29;66.41;98963.25;5417800;32;33860;-73
2024/01/04 04:58:10;;;;;;;;;;;;;;;10.48;65.51;98941.13;5411661;32;33440;-74
2024/01/04 05:01:12;;;;;;;;;;;;;;;10.78;64.42;98933.97;5400077;32;33959;-67
2024/01/04 05:04:14;;;;;;;;;;;;;;;10.99;62.95;98941.44;5407306;32;33941;-68
2024/01/04 05:07:16;;;;;;;;;;;;;;;10.97;62.47;98943.31;5418029;32;34508;-66
2024/01/04 05:10:19;;;;;;;;;;;;;;;10.82;62.88;98932.84;5422107;32;34637;-75
2024/01/04 05:13:21;;;;;;;;;;;;;;;11.09;62.08;98932.88;5416808;32;33571;-67
2024/01/04 05:16:23;;;;;;;;;;;;;;;10.85;62.40;98929.19;5414204;32;33887;-73
2024/01/04 05:19:25;;;;;;;;;;;;;;;10.45;64.02;98921.16;5395908;32;33766;-74
2024/01/04 05:22:27;;;;;;;;;;;;;;;10.56;63.44;98925.72;5401376;32;34266;-75
2024/01/04 05:25:30;;;;;;;;;;;;;;;10.61;63.40;98930.72;5416998;32;32468;-74
2024/01/04 05:28:32;;;;;;;;;;;;;;;10.67;62.63;98920.66;5416782;32;34378;-67
2024/01/04 05:31:34;;;;;;;;;;;;;;;9.95;65.64;98935.53;5396241;32;33198;-74
2024/01/04 05:34:36;;;;;;;;;;;;;;;10.41;64.25;98937.19;5410055;32;33860;-67
2024/01/04 05:37:38;;;;;;;;;;;;;;;10.59;63.59;98941.31;5419710;32;33114;-66
2024/01/04 05:40:41;;;;;;;;;;;;;;;9.71;65.71;98948.31;5421051;32;34555;-68
2024/01/04 05:43:43;;;;;;;;;;;;;;;10.33;64.45;98955.22;5402136;32;33740;-68
2024/01/04 05:46:45;;;;;;;;;;;;;;;10.22;64.28;98955.81;5415207;32;34091;-66
2024/01/04 05:49:47;;;;;;;;;;;;;;;9.85;66.29;98991.25;5417752;32;34297;-66
2024/01/04 05:52:49;;;;;;;;;;;;;;;9.65;67.24;99002.91;5412851;32;33999;-75
2024/01/04 05:55:51;;;;;;;;;;;;;;;10.22;65.48;98990.78;5419303;32;34317;-66
2024/01/04 05:58:53;;;;;;;;;;;;;;;10.19;64.44;98988.37;5410845;32;33750;-74
2024/01/04 06:01:56;;;;;;;;;;;;;;;10.39;63.83;98994.22;5419902;32;34082;-66
2024/01/04 06:04:57;;;;;;;;;;;;;;;10.29;63.78;98996.56;5415395;32;33885;-67
2024/01/04 06:07:59;;;;;;;;;;;;;;;10.27;63.86;99001.91;5415511;32;33130;-66
2024/01/04 06:11:04;;;;;;;;;;;;;;;9.73;65.78;99003.34;5416282;32;33945;-75
2024/01/04 06:14:06;;;;;;;;;;;;;;;9.57;66.18;99013.84;5418031;32;33814;-67
2024/01/04 06:17:08;;;;;;;;;;;;;;;9.86;65.83;99008.72;5397507;32;32919;-67
2024/01/04 06:20:10;;;;;;;;;;;;;;;9.40;67.43;99008.69;5419356;32;33383;-75
2024/01/04 06:23:12;;;;;;;;;;;;;;;9.88;66.40;99005.06;5417642;32;33441;-74
2024/01/04 06:26:20;;;;;;;;;;;;;;;10.26;64.74;99005.47;5418236;32;34518;-66
2024/01/04 06:29:22;;;;;;;;;;;;;;;10.11;64.70;99006.34;5419797;32;35631;-68
2024/01/04 06:32:24;;;;;;;;;;;;;;;9.77;65.80;99024.03;5400605;32;33331;-74
2024/01/04 06:35:26;;;;;;;;;;;;;;;9.34;67.44;99025.66;5418729;32;33624;-66
2024/01/04 06:38:28;;;;;;;;;;;;;;;9.13;68.48;99026.81;5415276;32;33888;-67
2024/01/04 06:41:30;;;;;;;;;;;;;;;9.09;68.77;99026.16;5414645;32;33959;-74
2024/01/04 06:44:35;;;;;;;;;;;;;;;9.26;67.68;99019.13;5415222;32;33429;-67
2024/01/04 06:47:47;;;;;;;;;;;;;;;9.16;68.28;99032.75;5415302;32;33710;-67
2024/01/04 06:50:50;;;;;;;;;;;;;;;9.59;66.59;99024.25;5423413;32;33618;-73
2024/01/04 06:53:51;;;;;;;;;;;;;;;9.87;65.50;99028.78;5419450;32;34399;-74
2024/01/04 06:56:54;;;;;;;;;;;;;;;9.95;64.69;99018.69;5411888;32;34252;-66
2024/01/04 06:59:56;;;;;;;;;;;;;;;10.03;64.22;99019.91;5404003;32;34060;-73
2024/01/04 07:02:58;;;;;;;;;;;;;;;10.15;63.42;99023.59;5418883;32;33392;-73
2024/01/04 07:06:00;;;;;;;;;;;;;;;10.10;63.33;99023.03;5430613;32;34059;-74
2024/01/04 07:09:02;;;;;;;;;;;;;;;10.32;62.42;99009.50;5407037;32;33443;-68
2024/01/04 07:12:06;;;;;;;;;;;;;;;10.49;61.48;99011.09;5426167;32;34057;-66
2024/01/04 07:15:10;;;;;;;;;;;;;;;10.20;62.61;99003.19;5410363;32;33733;-74
2024/01/04 07:18:12;;;;;;;;;;;;;;;10.24;62.05;99009.09;5412974;32;33262;-75
2024/01/04 07:21:15;;;;;;;;;;;;;;;10.50;61.15;99003.16;5423252;32;33585;-68
2024/01/04 07:24:17;;;;;;;;;;;;;;;10.97;59.17;99009.87;5418722;32;33886;-79
2024/01/04 07:27:20;;;;;;;;;;;;;;;10.76;58.97;99001.56;5425807;32;33726;-75
2024/01/04 07:30:22;;;;;;;;;;;;;;;11.21;57.12;98999.62;5421331;32;34398;-75
2024/01/04 07:33:26;;;;;;;;;;;;;;;10.26;58.49;99004.63;5414836;32;33074;-71
2024/01/04 07:36:28;;;;;;;;;;;;;;;11.04;57.39;99002.47;5422934;32;33285;-77
2024/01/04 07:39:31;;;;;;;;;;;;;;;11.13;55.28;98996.59;5403364;32;33814;-71
2024/01/04 07:42:33;;;;;;;;;;;;;;;11.15;54.65;98993.91;5417530;32;34090;-70
2024/01/04 07:45:36;;;;;;;;;;;;;;;11.24;53.15;98996.78;5409709;32;33729;-73
2024/01/04 07:48:38;;;;;;;;;;;;;;;10.70;53.63;98995.84;5407359;32;33851;-76
2024/01/04 07:51:41;;;;;;;;;;;;;;;11.43;51.48;98999.06;5410452;32;33546;-72
2024/01/04 07:54:43;;;;;;;;;;;;;;;11.35;50.65;98993.47;5408260;32;34272;-70
2024/01/04 07:57:52;;;;;;;;;;;;;;;11.15;51.34;99002.63;5422564;32;34113;-68
2024/01/04 08:00:54;;;;;;;;;;;;;;;12.22;49.09;99003.53;5416211;32;33762;-72
2024/01/04 08:03:56;;;;;;;;;;;;;;;12.43;48.17;99004.72;5425524;32;34036;-72
2024/01/04 08:06:58;;;;;;;;;;;;;;;12.24;48.35;99000.81;5422207;32;33868;-68
2024/01/04 08:10:00;;;;;;;;;;;;;;;12.92;46.57;98992.53;5420435;32;33299;-70
2024/01/04 08:13:02;;;;;;;;;;;;;;;12.43;47.18;98990.69;5419989;32;33432;-76
2024/01/04 08:16:05;;;;;;;;;;;;;;;12.63;46.00;98984.03;5426485;32;33333;-69
2024/01/04 08:19:07;;;;;;;;;;;;;;;12.55;46.19;98981.06;5424893;32;33180;-73
2024/01/04 08:22:09;;;;;;;;;;;;;;;12.50;45.56;98975.31;5424211;32;34552;-76
2024/01/04 08:25:11;;;;;;;;;;;;;;;12.59;44.73;98987.84;5423092;32;33946;-75
2024/01/04 08:28:13;;;;;;;;;;;;;;;12.73;44.54;98987.69;5424328;32;33962;-72
2024/01/04 08:31:15;;;;;;;;;;;;;;;12.58;44.75;98978.25;5423787;32;33799;-73
2024/01/04 08:34:18;;;;;;;;;;;;;;;12.78;44.53;98985.59;5420514;32;33036;-79
2024/01/04 08:37:20;;;;;;;;;;;;;;;13.35;43.22;98979.78;5407834;32;33897;-73
2024/01/04 08:40:23;;;;;;;;;;;;;;;13.45;42.76;98975.50;5423643;32;35006;-75
2024/01/04 08:43:25;;;;;;;;;;;;;;;13.11;43.20;98989.44;5401763;32;35267;-77
2024/01/04 08:46:27;;;;;;;;;;;;;;;13.18;42.92;98994.16;5414624;32;33286;-84
2024/01/04 08:49:29;;;;;;;;;;;;;;;13.23;43.24;99002.63;5423207;32;33349;-74
2024/01/04 08:52:32;;;;;;;;;;;;;;;13.28;43.14;98999.66;5425722;32;33791;-69
2024/01/04 08:55:34;;;;;;;;;;;;;;;13.69;43.15;99004.53;5427548;32;32433;-77
2024/01/04 08:58:38;;;;;;;;;;;;;;;12.71;44.55;99005.44;5427362;32;33608;-73
2024/01/04 09:01:40;;;;;;;;;;;;;;;13.22;44.59;99014.12;5401456;32;33570;-75
2024/01/04 09:04:42;;;;;;;;;;;;;;;13.01;44.58;99008.56;5424403;32;34755;-78
2024/01/04 09:07:44;;;;;;;;;;;;;;;12.95;44.93;99002.87;5421912;32;34177;-74
2024/01/04 09:10:47;;;;;;;;;;;;;;;13.40;43.69;99006.69;5413563;32;35357;-77
2024/01/04 09:13:49;;;;;;;;;;;;;;;13.13;44.13;98991.00;5430270;32;35012;-71
2024/01/04 09:16:51;;;;;;;;;;;;;;;13.53;43.34;99004.84;5412522;32;33867;-78
2024/01/04 09:19:53;;;;;;;;;;;;;;;13.83;41.96;98987.66;5427921;32;33641;-73
2024/01/04 09:22:55;;;;;;;;;;;;;;;13.52;42.07;98995.25;5418192;32;33462;-72
2024/01/04 09:26:03;;;;;;;;;;;;;;;13.32;42.85;99001.09;5430798;32;33868;-77
2024/01/04 09:29:05;;;;;;;;;;;;;;;13.47;42.64;99002.66;5424586;32;34496;-72
2024/01/04 09:32:08;;;;;;;;;;;;;;;13.42;42.07;99012.69;5399905;32;34424;-75
2024/01/04 09:35:10;;;;;;;;;;;;;;;13.25;42.41;99039.44;5430178;32;33425;-74
2024/01/04 09:38:12;;;;;;;;;;;;;;;13.72;41.50;99020.19;5420737;32;33896;-78
2024/01/04 09:41:20;;;;;;;;;;;;;;;13.50;41.63;99026.16;5414338;32;33842;-77
2024/01/04 09:44:24;;;;;;;;;;;;;;;13.38;42.24;99031.47;5429291;32;33090;-72
2024/01/04 09:47:26;;;;;;;;;;;;;;;13.97;41.06;99013.03;5419491;32;34552;-74
2024/01/04 09:50:28;;;;;;;;;;;;;;;14.39;40.38;99016.91;5427142;32;35451;-77
2024/01/04 09:53:30;;;;;;;;;;;;;;;14.86;39.36;99018.53;5419875;32;33076;-84
2024/01/04 09:56:32;;;;;;;;;;;;;;;15.10;38.30;99015.78;5425289;32;33868;-72
2024/01/04 09:59:34;;;;;;;;;;;;;;;15.30;37.98;99034.50;5422808;32;33608;-72
2024/01/04 10:02:39;;;;;;;;;;;;;;;14.73;38.95;99024.91;5417007;32;33239;-70
2024/01/04 10:05:42;;;;;;;;;;;;;;;14.01;39.29;99036.50;5426582;32;33801;-73
2024/01/04 10:08:44;;;;;;;;;;;;;;;14.36;39.54;99035.63;5420236;32;33174;-67
2024/01/04 10:12:05;;;;;;;;;;;;;;;14.64;38.35;99037.03;5415186;32;33911;-71
2024/01/04 10:15:11;;;;;;;;;;;;;;;14.74;38.62;99029.22;5423097;32;33123;-72
2024/01/04 10:18:13;;;;;;;;;;;;;;;14.05;39.18;99047.69;5411195;32;33202;-74
2024/01/04 10:21:15;;;;;;;;;;;;;;;14.05;39.51;99043.25;5431416;32;33304;-76
2024/01/04 10:24:21;;;;;;;;;;;;;;;14.10;39.41;99040.22;5425368;32;34480;-73
2024/01/04 10:27:23;;;;;;;;;;;;;;;14.09;39.68;99057.88;5427546;32;34502;-75
2024/01/04 10:30:26;;;;;;;;;;;;;;;14.65;39.25;99043.19;5414820;32;33207;-77
2024/01/04 10:33:29;;;;;;;;;;;;;;;14.92;39.10;99048.13;5425692;32;35083;-77
2024/01/04 10:36:38;;;;;;;;;;;;;;;15.38;38.45;99056.75;5429989;32;33632;-73
2024/01/04 10:39:41;;;;;;;;;;;;;;;15.54;39.16;99072.25;5427807;32;34180;-73
2024/01/04 10:42:50;;;;;;;;;;;;;;;15.22;39.45;99074.00;5403696;32;33601;-72
2024/01/04 10:45:52;;;;;;;;;;;;;;;14.74;40.90;99074.19;5429624;32;33028;-70
2024/01/04 10:48:55;;;;;;;;;;;;;;;13.89;42.00;99070.87;5426793;32;33140;-72
2024/01/04 10:51:58;;;;;;;;;;;;;;;14.71;39.79;99061.22;5422065;32;32392;-71
2024/01/04 10:55:00;;;;;;;;;;;;;;;14.44;40.06;99054.41;5416305;32;34097;-64
2024/01/04 10:58:04;;;;;;;;;;;;;;;14.35;40.53;99057.72;5422937;32;33474;-72
2024/01/04 11:01:06;;;;;;;;;;;;;;;13.83;41.61;99053.69;5423746;32;33969;-70
2024/01/04 11:04:08;;;;;;;;;;;;;;;14.26;40.80;99059.28;5422873;32;33331;-71
2024/01/04 11:07:14;;;;;;;;;;;;;;;13.31;41.85;99062.75;5420434;32;33668;-71
2024/01/04 11:10:16;;;;;;;;;;;;;;;13.18;42.11;99054.81;5431719;32;34491;-73
2024/01/04 11:13:18;;;;;;;;;;;;;;;13.51;41.21;99043.69;5418848;32;33429;-69
2024/01/04 11:16:41;;;;;;;;;;;;;;;14.29;40.61;99039.69;5423716;32;33365;-69
2024/01/04 11:19:52;;;;;;;;;;;;;;;14.11;39.95;99036.66;5408039;32;33008;-70
2024/01/04 11:22:54;;;;;;;;;;;;;;;14.42;39.42;99035.16;5425980;32;33863;-71
2024/01/04 11:26:03;;;;;;;;;;;;;;;14.52;39.73;99045.91;5415226;32;34287;-72
2024/01/04 11:29:09;;;;;;;;;;;;;;;15.02;38.83;99046.44;5423150;32;33283;-70
2024/01/04 11:32:11;;;;;;;;;;;;;;;14.75;39.31;99049.41;5421216;32;33083;-70
2024/01/04 11:35:13;;;;;;;;;;;;;;;14.50;39.76;99043.41;5416393;32;34584;-71
2024/01/04 11:38:24;;;;;;;;;;;;;;;14.12;40.51;99056.00;5424728;32;34113;-70
2024/01/04 11:41:35;;;;;;;;;;;;;;;14.17;40.05;99045.91;5433421;32;33589;-69
2024/01/04 11:44:38;;;;;;;;;;;;;;;14.93;38.85;99036.56;5422556;32;33759;-70
2024/01/04 11:47:41;;;;;;;;;;;;;;;15.10;38.74;99044.03;5431390;32;33277;-70
2024/01/04 11:50:50;;;;;;;;;;;;;;;14.28;39.87;99043.28;5414607;32;33717;-70
2024/01/04 11:53:53;;;;;;;;;;;;;;;14.83;39.33;99041.75;5425132;32;34294;-72
2024/01/04 11:56:55;;;;;;;;;;;;;;;14.81;39.17;99049.81;5423581;32;34381;-73
2024/01/04 11:59:58;;;;;;;;;;;;;;;14.27;40.53;99050.38;5404476;32;34073;-71
2024/01/04 12:03:00;;;;;;;;;;;;;;;14.61;40.04;99053.97;5423440;32;34431;-70
2024/01/04 12:06:03;;;;;;;;;;;;;;;14.69;40.25;99045.47;5413420;32;34016;-69
2024/01/04 12:09:09;;;;;;;;;;;;;;;15.97;37.93;99037.88;5421688;32;33844;-72
2024/01/04 12:12:11;;;;;;;;;;;;;;;15.49;38.49;99037.38;5427567;32;33826;-67
2024/01/04 12:15:14;;;;;;;;;;;;;;;16.28;37.00;99035.28;5427883;32;34350;-74
2024/01/04 12:18:20;;;;;;;;;;;;;;;15.25;38.70;99044.62;5431016;32;32685;-72
2024/01/04 12:21:28;;;;;;;;;;;;;;;14.83;38.95;99052.34;5427191;32;33201;-73
2024/01/04 12:24:30;;;;;;;;;;;;;;;16.40;36.80;99041.37;5414122;32;33182;-76
2024/01/04 12:27:35;;;;;;;;;;;;;;;18.24;33.29;99044.66;5424338;32;35732;-76
2024/01/04 12:30:38;;;;;;;;;;;;;;;17.77;33.63;99047.13;5427563;32;35380;-71
2024/01/04 12:33:42;;;;;;;;;;;;;;;18.70;32.65;99048.37;5426230;32;34307;-74
2024/01/04 12:36:45;;;;;;;;;;;;;;;17.73;33.62;99048.41;5426091;32;33201;-72
2024/01/04 12:39:47;;;;;;;;;;;;;;;17.61;33.67;99045.00;5429141;32;33304;-69
2024/01/04 12:42:49;;;;;;;;;;;;;;;17.90;33.37;99046.88;5427528;32;33656;-70
2024/01/04 12:46:04;;;;;;;;;;;;;;;17.95;33.37;99048.13;5429276;32;33189;-68
2024/01/04 12:49:07;;;;;;;;;;;;;;;18.41;33.22;99035.94;5425400;32;33594;-74
2024/01/04 12:52:13;;;;;;;;;;;;;;;16.91;34.91;99061.81;5422024;32;32284;-69
2024/01/04 12:55:15;;;;;;;;;;;;;;;15.88;36.91;99064.25;5419253;32;34434;-72
2024/01/04 12:58:17;;;;;;;;;;;;;;;16.67;35.79;99084.13;5430350;32;34502;-73
2024/01/04 13:01:19;;;;;;;;;;;;;;;18.86;32.37;99070.75;5430815;32;34615;-71
2024/01/04 13:04:22;;;;;;;;;;;;;;;19.30;31.35;99075.50;5428216;32;33748;-72
2024/01/04 13:07:24;;;;;;;;;;;;;;;18.31;32.80;99085.66;5433771;32;33754;-75
2024/01/04 13:10:26;;;;;;;;;;;;;;;18.36;32.93;99086.09;5431819;32;33281;-72
2024/01/04 13:13:28;;;;;;;;;;;;;;;17.45;34.25;99111.06;5427512;32;33722;-72
2024/01/04 13:16:33;;;;;;;;;;;;;;;16.75;35.32;99116.19;5431023;32;34176;-71
2024/01/04 13:19:35;;;;;;;;;;;;;;;16.05;36.80;99115.88;5423909;32;34578;-67
2024/01/04 13:22:39;;;;;;;;;;;;;;;15.40;37.92;99122.84;5429520;32;33323;-74
2024/01/04 13:25:41;;;;;;;;;;;;;;;16.77;35.77;99124.84;5424455;32;33367;-74
2024/01/04 13:28:43;;;;;;;;;;;;;;;15.43;37.96;99130.53;5428049;32;33655;-72
2024/01/04 13:31:45;;;;;;;;;;;;;;;15.15;38.81;99130.03;5432938;32;33537;-73
2024/01/04 13:34:47;;;;;;;;;;;;;;;14.84;39.72;99139.50;5426014;32;34039;-73
2024/01/04 13:37:49;;;;;;;;;;;;;;;14.76;39.80;99139.25;5429990;32;35076;-71
2024/01/04 13:40:52;;;;;;;;;;;;;;;15.07;39.06;99137.75;5430706;32;33981;-70
2024/01/04 13:43:54;;;;;;;;;;;;;;;14.97;39.31;99152.63;5413783;32;33763;-70
2024/01/04 13:46:58;;;;;;;;;;;;;;;14.86;39.82;99165.81;5421868;32;33990;-73
2024/01/04 13:50:00;;;;;;;;;;;;;;;15.15;38.96;99167.09;5429181;32;33269;-76
2024/01/04 13:53:06;;;;;;;;;;;;;;;14.81;39.61;99187.34;5408350;32;32846;-75
2024/01/04 13:56:09;;;;;;;;;;;;;;;15.11;39.18;99178.03;5402587;32;33041;-75
2024/01/04 13:59:11;;;;;;;;;;;;;;;14.17;40.97;99197.38;5427968;32;33657;-85
2024/01/04 14:02:15;;;;;;;;;;;;;;;14.20;41.15;99193.66;5423581;32;34282;-66
2024/01/04 14:05:17;;;;;;;;;;;;;;;15.86;37.86;99194.22;5427971;32;34118;-69
2024/01/04 14:08:19;;;;;;;;;;;;;;;15.97;37.23;99190.69;5415909;32;33313;-67
2024/01/04 14:11:21;;;;;;;;;;;;;;;16.84;35.86;99201.28;5425862;32;33234;-72
2024/01/04 14:14:23;;;;;;;;;;;;;;;16.89;36.11;99194.63;5425873;32;33741;-68
2024/01/04 14:17:25;;;;;;;;;;;;;;;17.71;34.33;99191.13;5421257;32;33735;-71
2024/01/04 14:20:28;;;;;;;;;;;;;;;18.04;33.95;99193.53;5429268;32;33303;-76
2024/01/04 14:23:30;;;;;;;;;;;;;;;17.48;34.39;99204.62;5419599;32;34048;-72
2024/01/04 14:26:32;;;;;;;;;;;;;;;14.54;39.98;99215.84;5430083;32;33616;-75
2024/01/04 14:29:34;;;;;;;;;;;;;;;15.00;39.60;99226.47;5401393;32;33230;-71
2024/01/04 14:32:36;;;;;;;;;;;;;;;13.75;42.14;99225.06;5427139;32;31332;-72
2024/01/04 14:35:40;;;;;;;;;;;;;;;13.69;42.62;99239.53;5431091;32;33003;-67
2024/01/04 14:38:42;;;;;;;;;;;;;;;13.73;42.69;99235.72;5421137;32;33920;-71
2024/01/04 14:41:44;;;;;;;;;;;;;;;13.84;42.70;99245.53;5425172;32;33847;-68
2024/01/04 14:44:47;;;;;;;;;;;;;;;13.96;42.49;99243.81;5426693;32;34261;-72
2024/01/04 14:47:50;;;;;;;;;;;;;;;13.42;43.80;99255.50;5432195;32;33183;-64
2024/01/04 14:50:52;;;;;;;;;;;;;;;13.71;43.26;99244.69;5426750;32;33861;-64
2024/01/04 14:53:54;;;;;;;;;;;;;;;13.79;43.07;99240.59;5412475;32;33865;-71
2024/01/04 14:56:56;;;;;;;;;;;;;;;13.04;44.56;99254.56;5424797;32;33321;-64
2024/01/04 14:59:59;;;;;;;;;;;;;;;12.95;44.88;99245.50;5411398;32;33238;-64
2024/01/04 15:03:01;;;;;;;;;;;;;;;13.17;44.55;99256.28;5423413;32;32766;-64
2024/01/04 15:06:04;;;;;;;;;;;;;;;13.25;44.44;99261.06;5424007;32;33259;-65
2024/01/04 15:09:06;;;;;;;;;;;;;;;12.79;45.88;99273.81;5404565;32;33317;-69
2024/01/04 15:12:08;;;;;;;;;;;;;;;13.69;43.59;99257.16;5395142;32;33989;-63
2024/01/04 15:15:10;;;;;;;;;;;;;;;13.62;43.89;99274.41;5415697;32;33337;-64
2024/01/04 15:18:26;;;;;;;;;;;;;;;13.07;44.52;99278.09;5405799;32;33554;-72
2024/01/04 15:21:29;;;;;;;;;;;;;;;12.99;45.36;99274.19;5423826;32;33268;-65
2024/01/04 15:24:31;;;;;;;;;;;;;;;12.81;45.47;99282.47;5410836;32;33748;-70
2024/01/04 15:27:33;;;;;;;;;;;;;;;13.32;44.57;99285.25;5419859;32;33679;-72
2024/01/04 15:30:35;;;;;;;;;;;;;;;13.23;44.55;99292.00;5421749;32;33237;-64
2024/01/04 15:33:37;;;;;;;;;;;;;;;12.88;45.70;99291.66;5415602;32;33266;-64
2024/01/04 15:36:39;;;;;;;;;;;;;;;13.20;45.16;99300.06;5425269;32;34352;-66
2024/01/04 15:39:41;;;;;;;;;;;;;;;13.25;45.35;99305.94;5402013;32;34987;-70
2024/01/04 15:42:43;;;;;;;;;;;;;;;13.97;43.98;99298.31;5423395;32;34088;-64
2024/01/04 15:45:45;;;;;;;;;;;;;;;14.13;43.22;99306.87;5426828;32;33945;-66
2024/01/04 15:48:47;;;;;;;;;;;;;;;13.97;43.53;99296.53;5399105;32;33154;-64
2024/01/04 15:51:49;;;;;;;;;;;;;;;13.51;44.59;99304.16;5426702;32;33788;-63